createdAt,value
2022-10-25T00:02:01.961Z,81.90
2022-10-25T00:04:49.826Z,81.60
2022-10-25T00:07:20.124Z,81.80
2022-10-25T00:09:49.085Z,82.10
2022-10-25T00:12:17.817Z,82.00
2022-10-25T00:14:46.672Z,81.70
2022-10-25T00:17:15.619Z,81.30
2022-10-25T00:19:44.498Z,81.10
2022-10-25T00:22:13.281Z,81.10
2022-10-25T00:24:43.611Z,81.20
2022-10-25T00:27:12.637Z,81.20
2022-10-25T00:29:41.516Z,81.40
2022-10-25T00:32:10.313Z,81.60
2022-10-25T00:34:42.081Z,81.40
2022-10-25T00:37:11.067Z,81.20
2022-10-25T00:39:39.992Z,81.00
2022-10-25T00:42:15.279Z,80.70
2022-10-25T00:44:51.888Z,80.70
2022-10-25T00:47:49.120Z,80.80
2022-10-25T00:50:31.086Z,81.00
2022-10-25T00:53:06.133Z,81.60
2022-10-25T00:55:35.314Z,82.10
2022-10-25T00:58:08.736Z,82.50
2022-10-25T01:00:37.964Z,82.90
2022-10-25T01:03:07.853Z,83.10
2022-10-25T01:05:37.627Z,83.30
2022-10-25T01:08:07.552Z,83.40
2022-10-25T01:10:36.534Z,83.40
2022-10-25T01:13:06.961Z,83.60
2022-10-25T01:15:42.355Z,83.80
2022-10-25T01:18:17.455Z,84.10
2022-10-25T01:21:23.044Z,84.20
2022-10-25T01:24:09.777Z,84.10
2022-10-25T01:27:08.100Z,83.90
2022-10-25T01:30:09.534Z,83.10
2022-10-25T01:32:50.015Z,82.60
2022-10-25T01:35:25.761Z,82.40
2022-10-25T01:38:19.737Z,82.40
2022-10-25T01:40:55.164Z,82.40
2022-10-25T01:43:32.567Z,82.40
2022-10-25T01:46:11.757Z,82.70
2022-10-25T01:48:47.320Z,82.90
2022-10-25T01:51:18.365Z,83.20
2022-10-25T01:53:52.459Z,83.50
2022-10-25T01:56:26.386Z,83.90
2022-10-25T01:59:31.758Z,84.00
2022-10-25T02:02:08.332Z,84.30
2022-10-25T02:04:53.495Z,84.30
2022-10-25T02:07:28.333Z,84.30
2022-10-25T02:10:08.720Z,84.30
2022-10-25T02:12:47.912Z,84.50
2022-10-25T02:15:22.910Z,84.60
2022-10-25T02:17:58.988Z,84.80
2022-10-25T02:20:34.319Z,85.20
2022-10-25T02:23:05.894Z,85.30
2022-10-25T02:25:36.221Z,85.50
2022-10-25T02:28:08.785Z,85.50
2022-10-25T02:30:39.816Z,85.70
2022-10-25T02:33:08.906Z,85.90
2022-10-25T02:35:39.459Z,85.90
2022-10-25T02:38:08.559Z,85.90
2022-10-25T02:40:37.774Z,85.90
2022-10-25T02:43:06.688Z,85.80
2022-10-25T02:45:35.537Z,85.70
2022-10-25T02:48:04.352Z,85.40
2022-10-25T02:50:33.202Z,85.30
2022-10-25T02:53:03.336Z,85.30
2022-10-25T02:55:32.100Z,85.30
2022-10-25T02:58:00.983Z,85.20
2022-10-25T03:00:30.183Z,85.00
2022-10-25T03:02:59.110Z,85.00
2022-10-25T03:05:28.019Z,85.00
2022-10-25T03:07:58.889Z,85.10
2022-10-25T03:10:29.664Z,85.10
2022-10-25T03:12:58.696Z,85.10
2022-10-25T03:15:27.525Z,85.20
2022-10-25T03:17:56.400Z,85.20
2022-10-25T03:20:25.242Z,85.10
2022-10-25T03:22:54.069Z,85.00
2022-10-25T03:25:23.030Z,85.30
2022-10-25T03:27:53.290Z,85.40
2022-10-25T03:30:22.314Z,85.70
2022-10-25T03:32:51.142Z,85.90
2022-10-25T03:35:20.493Z,86.20
2022-10-25T03:37:50.030Z,86.40
2022-10-25T03:40:19.873Z,86.50
2022-10-25T03:42:48.801Z,86.70
2022-10-25T03:45:19.652Z,87.00
2022-10-25T03:47:48.765Z,87.30
2022-10-25T03:50:17.680Z,87.40
2022-10-25T03:52:46.558Z,87.60
2022-10-25T03:55:15.434Z,87.70
2022-10-25T03:57:44.501Z,87.90
2022-10-25T04:00:14.666Z,87.90
2022-10-25T04:02:45.007Z,87.90
2022-10-25T04:05:13.935Z,88.00
2022-10-25T04:07:42.697Z,88.20
2022-10-25T04:10:11.627Z,88.40
2022-10-25T04:12:40.473Z,88.60
2022-10-25T04:15:10.814Z,88.60
2022-10-25T04:17:39.748Z,88.70
2022-10-25T04:20:11.353Z,88.70
2022-10-25T04:22:40.297Z,88.70
2022-10-25T04:25:10.041Z,88.70
2022-10-25T04:27:38.997Z,88.60
2022-10-25T04:30:08.667Z,88.50
2022-10-25T04:32:37.445Z,88.00
2022-10-25T04:35:07.285Z,87.50
2022-10-25T04:37:37.652Z,87.10
2022-10-25T04:40:07.456Z,87.00
2022-10-25T04:42:36.808Z,87.10
2022-10-25T04:45:06.588Z,87.20
2022-10-25T04:47:36.029Z,86.40
2022-10-25T04:50:05.469Z,86.20
2022-10-25T04:52:34.351Z,86.20
2022-10-25T04:55:04.761Z,86.30
2022-10-25T04:57:33.707Z,86.40
2022-10-25T05:00:02.484Z,86.40
2022-10-25T05:02:31.320Z,86.30
2022-10-25T05:05:18.898Z,86.20
2022-10-25T05:07:47.701Z,86.20
2022-10-25T05:10:36.435Z,86.50
2022-10-25T05:13:05.377Z,86.80
2022-10-25T05:15:56.648Z,87.20
2022-10-25T05:18:25.852Z,87.70
2022-10-25T05:20:55.440Z,88.00
2022-10-25T05:23:25.198Z,88.40
2022-10-25T05:26:04.631Z,88.60
2022-10-25T05:28:33.740Z,89.00
2022-10-25T05:31:05.421Z,89.40
2022-10-25T05:33:35.342Z,89.70
2022-10-25T05:36:05.169Z,90.00
2022-10-25T05:38:36.982Z,90.10
2022-10-25T05:41:08.994Z,90.20
2022-10-25T05:43:37.968Z,90.30
2022-10-25T05:46:08.387Z,90.40
2022-10-25T05:48:38.433Z,90.60
2022-10-25T05:51:34.686Z,90.70
2022-10-25T05:54:08.437Z,90.90
2022-10-25T05:56:39.600Z,90.90
2022-10-25T05:59:10.449Z,91.00
2022-10-25T06:01:41.236Z,91.10
2022-10-25T06:04:11.064Z,91.30
2022-10-25T06:06:41.834Z,91.40
2022-10-25T06:09:11.561Z,91.50
2022-10-25T06:11:41.949Z,91.60
2022-10-25T06:14:11.734Z,91.60
2022-10-25T06:16:40.592Z,91.70
2022-10-25T06:19:09.873Z,91.70
2022-10-25T06:21:38.721Z,91.80
2022-10-25T06:24:08.011Z,91.80
2022-10-25T06:26:37.258Z,91.80
2022-10-25T06:29:07.662Z,91.80
2022-10-25T06:31:36.465Z,91.80
2022-10-25T06:34:05.438Z,91.80
2022-10-25T06:36:34.368Z,91.80
2022-10-25T06:39:05.328Z,91.70
2022-10-25T06:41:37.273Z,91.70
2022-10-25T06:44:08.243Z,91.60
2022-10-25T06:49:28.465Z,91.40
2022-10-25T06:51:58.704Z,91.30
2022-10-25T06:54:27.986Z,91.10
2022-10-25T06:57:15.331Z,91.00
2022-10-25T06:59:46.098Z,90.90
2022-10-25T07:02:15.271Z,90.60
2022-10-25T07:04:44.148Z,90.50
2022-10-25T07:07:15.239Z,90.20
2022-10-25T07:09:44.184Z,90.00
2022-10-25T07:12:13.272Z,89.60
2022-10-25T07:14:42.103Z,89.00
2022-10-25T07:17:12.562Z,88.50
2022-10-25T07:19:41.612Z,87.80
2022-10-25T07:22:10.366Z,87.50
2022-10-25T07:24:39.164Z,86.20
2022-10-25T07:27:08.559Z,85.30
2022-10-25T07:29:37.526Z,84.60
2022-10-25T07:32:06.842Z,83.70
2022-10-25T07:34:37.178Z,82.90
2022-10-25T07:37:07.255Z,82.20
2022-10-25T07:39:36.105Z,81.50
2022-10-25T07:42:05.063Z,80.60
2022-10-25T07:44:33.995Z,80.10
2022-10-25T07:47:02.825Z,79.40
2022-10-25T07:49:31.670Z,78.80
2022-10-25T07:52:02.028Z,77.90
2022-10-25T07:54:30.948Z,77.30
2022-10-25T07:56:59.794Z,76.60
2022-10-25T07:59:29.185Z,76.00
2022-10-25T08:01:58.007Z,75.20
2022-10-25T08:04:29.465Z,74.40
2022-10-25T08:07:02.568Z,74.00
2022-10-25T08:09:38.325Z,73.30
2022-10-25T08:12:26.087Z,73.00
2022-10-25T08:14:54.975Z,72.40
2022-10-25T08:17:23.910Z,72.00
2022-10-25T08:19:52.691Z,71.60
2022-10-25T08:22:23.587Z,71.20
2022-10-25T08:24:52.526Z,71.00
2022-10-25T08:27:21.358Z,70.50
2022-10-25T08:29:50.237Z,69.60
2022-10-25T08:32:19.242Z,68.90
2022-10-25T08:34:48.092Z,68.40
2022-10-25T08:37:16.902Z,68.00
2022-10-25T08:39:47.172Z,67.50
2022-10-25T08:42:24.371Z,66.00
2022-10-25T08:45:01.867Z,65.10
2022-10-25T08:47:36.491Z,64.00
2022-10-25T08:50:12.733Z,61.50
2022-10-25T08:52:48.007Z,58.50
2022-10-25T08:55:21.073Z,54.90
2022-10-25T08:57:52.939Z,52.00
2022-10-25T09:00:24.054Z,49.30
2022-10-25T09:02:55.536Z,47.00
2022-10-25T09:05:37.875Z,44.90
2022-10-25T09:08:28.296Z,42.40
2022-10-25T09:11:08.928Z,40.10
2022-10-25T09:13:46.137Z,38.30
2022-10-25T09:16:18.540Z,37.50
2022-10-25T09:18:50.926Z,37.20
2022-10-25T09:21:23.256Z,36.10
2022-10-25T09:24:01.510Z,35.50
2022-10-25T09:26:42.320Z,34.60
2022-10-25T09:29:19.166Z,34.10
2022-10-25T09:31:52.414Z,33.70
2022-10-25T09:34:23.883Z,33.00
2022-10-25T09:37:18.697Z,32.50
2022-10-25T09:39:50.415Z,31.70
2022-10-25T09:42:26.336Z,31.40
2022-10-25T09:44:59.964Z,30.70
2022-10-25T09:47:43.114Z,30.00
2022-10-25T09:50:20.090Z,29.70
2022-10-25T09:53:00.833Z,29.50
2022-10-25T09:55:36.486Z,29.00
2022-10-25T09:58:07.705Z,28.70
2022-10-25T10:00:57.243Z,28.70
2022-10-25T10:03:30.443Z,28.40
2022-10-25T10:06:04.477Z,28.10
2022-10-25T10:08:36.629Z,27.90
2022-10-25T10:11:07.439Z,27.90
2022-10-25T10:13:44.165Z,27.70
2022-10-25T10:16:23.412Z,27.60
2022-10-25T10:18:52.356Z,27.40
2022-10-25T10:21:22.546Z,27.60
2022-10-25T10:23:54.882Z,27.50
2022-10-25T10:26:29.477Z,27.60
2022-10-25T10:29:15.438Z,27.90
2022-10-25T10:31:49.859Z,27.80
2022-10-25T10:34:55.685Z,27.80
2022-10-25T10:37:26.744Z,28.00
2022-10-25T10:40:25.806Z,28.20
2022-10-25T10:42:57.073Z,28.10
2022-10-25T10:45:29.580Z,28.20
2022-10-25T10:47:59.848Z,28.10
2022-10-25T10:50:33.053Z,28.30
2022-10-25T10:53:04.025Z,28.30
2022-10-25T10:55:35.017Z,28.10
2022-10-25T10:58:07.680Z,28.30
2022-10-25T11:00:38.201Z,28.60
2022-10-25T11:03:07.281Z,29.30
2022-10-25T11:05:39.739Z,29.50
2022-10-25T11:08:22.403Z,29.70
2022-10-25T11:10:51.223Z,30.00
2022-10-25T11:13:23.080Z,30.50
2022-10-25T11:16:38.889Z,31.80
2022-10-25T11:19:18.393Z,32.70
2022-10-25T11:22:17.445Z,33.80
2022-10-25T11:24:55.964Z,34.20
2022-10-25T11:27:36.034Z,34.70
2022-10-25T11:30:10.931Z,35.10
2022-10-25T11:33:28.839Z,35.80
2022-10-25T11:36:26.891Z,36.40
2022-10-25T11:39:07.802Z,36.80
2022-10-25T11:41:45.684Z,36.60
2022-10-25T11:44:41.754Z,36.40
2022-10-25T11:47:24.699Z,36.50
2022-10-25T11:50:14.552Z,35.70
2022-10-25T11:53:06.077Z,35.60
2022-10-25T11:55:40.511Z,35.70
2022-10-25T11:58:31.553Z,35.90
2022-10-25T12:01:12.503Z,36.30
2022-10-25T12:03:56.900Z,36.80
2022-10-25T12:06:34.996Z,37.10
2022-10-25T12:09:11.800Z,37.40
2022-10-25T12:11:46.394Z,38.30
2022-10-25T12:14:26.950Z,38.30
2022-10-25T12:17:02.051Z,38.70
2022-10-25T12:19:51.591Z,39.10
2022-10-25T12:22:25.578Z,39.20
2022-10-25T12:25:01.008Z,39.40
2022-10-25T12:27:31.247Z,39.30
2022-10-25T12:30:04.385Z,39.60
2022-10-25T12:32:40.336Z,39.80
2022-10-25T12:35:20.451Z,39.60
2022-10-25T12:37:58.004Z,39.70
2022-10-25T12:40:29.468Z,39.90
2022-10-25T12:43:07.138Z,40.70
2022-10-25T12:46:07.587Z,40.60
2022-10-25T12:49:29.704Z,41.00
2022-10-25T12:52:18.036Z,40.40
2022-10-25T12:55:43.825Z,40.50
2022-10-25T12:58:42.332Z,40.70
2022-10-25T13:01:25.318Z,40.80
2022-10-25T13:04:22.551Z,40.90
2022-10-25T13:06:53.405Z,40.80
2022-10-25T13:09:27.095Z,41.40
2022-10-25T13:12:00.374Z,40.90
2022-10-25T13:14:32.824Z,40.90
2022-10-25T13:17:38.670Z,41.10
2022-10-25T13:20:49.920Z,41.30
2022-10-25T13:23:59.853Z,41.40
2022-10-25T13:26:34.086Z,41.60
2022-10-25T13:29:05.188Z,41.50
2022-10-25T13:31:49.155Z,41.70
2022-10-25T13:34:37.678Z,41.60
2022-10-25T13:37:32.330Z,42.10
2022-10-25T13:40:24.866Z,42.50
2022-10-25T13:43:21.798Z,42.50
2022-10-25T13:45:56.415Z,43.50
2022-10-25T13:48:31.141Z,43.70
2022-10-25T13:51:02.659Z,44.40
2022-10-25T13:53:39.066Z,43.70
2022-10-25T13:56:10.143Z,44.60
2022-10-25T13:58:53.124Z,44.80
2022-10-25T14:01:58.011Z,45.30
2022-10-25T14:04:50.244Z,45.60
2022-10-25T14:07:48.865Z,46.20
2022-10-25T14:10:22.556Z,46.40
2022-10-25T14:12:53.814Z,46.10
2022-10-25T14:15:37.285Z,46.10
2022-10-25T14:18:13.573Z,45.90
2022-10-25T14:20:47.305Z,46.10
2022-10-25T14:23:20.074Z,46.20
2022-10-25T14:25:53.203Z,46.20
2022-10-25T14:28:28.972Z,46.00
2022-10-25T14:30:59.525Z,45.90
2022-10-25T14:33:30.975Z,45.60
2022-10-25T14:36:10.215Z,45.80
2022-10-25T14:38:59.694Z,45.30
2022-10-25T14:41:30.058Z,44.90
2022-10-25T14:43:59.649Z,44.50
2022-10-25T14:46:34.786Z,44.20
2022-10-25T14:49:04.668Z,44.40
2022-10-25T14:51:38.143Z,43.90
2022-10-25T14:54:09.211Z,44.00
2022-10-25T14:56:40.303Z,44.40
2022-10-25T14:59:19.670Z,44.60
2022-10-25T15:01:54.854Z,44.70
2022-10-25T15:04:33.100Z,44.90
2022-10-25T15:07:04.862Z,45.00
2022-10-25T15:09:43.042Z,45.30
2022-10-25T15:12:21.960Z,45.50
2022-10-25T15:14:50.856Z,46.00
2022-10-25T15:17:31.726Z,46.20
2022-10-25T15:20:07.608Z,46.60
2022-10-25T15:22:50.373Z,47.00
2022-10-25T15:25:29.773Z,47.10
2022-10-25T15:28:09.943Z,47.20
2022-10-25T15:30:41.023Z,47.50
2022-10-25T15:33:13.183Z,48.00
2022-10-25T15:35:48.675Z,48.30
2022-10-25T15:38:19.538Z,48.60
2022-10-25T15:40:49.751Z,49.00
2022-10-25T15:43:18.661Z,49.40
2022-10-25T15:45:47.478Z,49.90
2022-10-25T15:48:18.889Z,50.20
2022-10-25T15:50:50.437Z,50.70
2022-10-25T15:53:22.417Z,51.20
2022-10-25T15:55:52.060Z,51.60
2022-10-25T15:58:21.078Z,51.70
2022-10-25T16:00:52.448Z,52.20
2022-10-25T16:03:24.723Z,52.40
2022-10-25T16:05:54.557Z,52.70
2022-10-25T16:08:25.010Z,52.80
2022-10-25T16:11:16.633Z,53.10
2022-10-25T16:13:47.765Z,53.30
2022-10-25T16:16:39.253Z,53.60
2022-10-25T16:19:14.885Z,54.10
2022-10-25T16:22:02.814Z,54.30
2022-10-25T16:24:33.117Z,54.70
2022-10-25T16:27:02.302Z,54.70
2022-10-25T16:29:31.239Z,54.80
2022-10-25T16:32:00.083Z,55.00
2022-10-25T16:34:29.209Z,55.30
2022-10-25T16:36:58.250Z,55.60
2022-10-25T16:39:27.290Z,55.70
2022-10-25T16:41:58.505Z,55.80
2022-10-25T16:44:27.378Z,55.90
2022-10-25T16:46:56.240Z,56.10
2022-10-25T16:49:25.042Z,56.20
2022-10-25T16:52:03.786Z,56.30
2022-10-25T16:54:33.203Z,56.40
2022-10-25T16:57:03.545Z,56.50
2022-10-25T16:59:32.384Z,56.80
2022-10-25T17:02:01.223Z,57.00
2022-10-25T17:04:30.216Z,57.20
2022-10-25T17:07:00.915Z,57.20
2022-10-25T17:09:30.038Z,57.40
2022-10-25T17:11:58.835Z,57.50
2022-10-25T17:14:29.148Z,57.60
2022-10-25T17:17:02.286Z,57.60
2022-10-25T17:19:32.680Z,57.70
2022-10-25T17:22:01.623Z,57.70
2022-10-25T17:24:38.909Z,57.80
2022-10-25T17:27:13.089Z,57.90
2022-10-25T17:29:47.502Z,58.00
2022-10-25T17:32:25.455Z,58.20
2022-10-25T17:34:57.769Z,58.30
2022-10-25T17:37:26.942Z,58.40
2022-10-25T17:39:55.986Z,58.40
2022-10-25T17:42:24.855Z,58.60
2022-10-25T17:44:55.392Z,58.50
2022-10-25T17:47:24.560Z,58.60
2022-10-25T17:49:54.533Z,58.60
2022-10-25T17:52:23.598Z,58.70
2022-10-25T17:54:52.363Z,58.80
2022-10-25T17:57:21.240Z,59.00
2022-10-25T17:59:50.674Z,59.20
2022-10-25T18:02:21.012Z,59.40
2022-10-25T18:05:02.324Z,59.60
2022-10-25T18:07:40.174Z,59.70
2022-10-25T18:10:11.757Z,59.90
2022-10-25T18:12:40.663Z,60.00
2022-10-25T18:15:10.533Z,60.30
2022-10-25T18:17:40.982Z,60.50
2022-10-25T18:20:10.694Z,60.80
2022-10-25T18:22:39.468Z,61.10
2022-10-25T18:25:09.176Z,61.40
2022-10-25T18:27:38.168Z,61.70
2022-10-25T18:30:08.178Z,62.00
2022-10-25T18:32:37.712Z,62.20
2022-10-25T18:35:09.091Z,62.50
2022-10-25T18:37:47.827Z,62.80
2022-10-25T18:40:17.576Z,63.00
2022-10-25T18:42:48.514Z,63.20
2022-10-25T18:45:17.545Z,63.40
2022-10-25T18:47:50.558Z,63.60
2022-10-25T18:50:21.511Z,63.80
2022-10-25T18:52:50.765Z,63.90
2022-10-25T18:55:22.181Z,64.10
2022-10-25T18:57:51.401Z,64.30
2022-10-25T19:00:20.768Z,64.50
2022-10-25T19:02:54.154Z,64.70
2022-10-25T19:05:27.399Z,64.90
2022-10-25T19:07:56.627Z,65.10
2022-10-25T19:10:25.696Z,65.30
2022-10-25T19:12:54.529Z,65.40
2022-10-25T19:15:23.481Z,65.60
2022-10-25T19:17:53.306Z,65.70
2022-10-25T19:20:23.582Z,65.90
2022-10-25T19:22:53.286Z,65.90
2022-10-25T19:25:41.024Z,66.00
2022-10-25T19:28:10.048Z,66.10
2022-10-25T19:30:40.392Z,66.40
2022-10-25T19:33:10.190Z,66.50
2022-10-25T19:35:40.583Z,66.70
2022-10-25T19:38:27.929Z,67.10
2022-10-25T19:41:01.081Z,67.30
2022-10-25T19:43:30.307Z,67.60
2022-10-25T19:45:59.736Z,67.70
2022-10-25T19:48:29.882Z,67.70
2022-10-25T19:51:05.977Z,67.60
2022-10-25T19:53:35.416Z,67.60
2022-10-25T19:56:07.300Z,67.50
2022-10-25T19:58:37.017Z,67.50
2022-10-25T20:01:09.317Z,67.40
2022-10-25T20:03:39.823Z,67.00
2022-10-25T20:06:12.677Z,67.10
2022-10-25T20:08:42.017Z,67.50
2022-10-25T20:11:12.416Z,67.70
2022-10-25T20:13:41.670Z,68.10
2022-10-25T20:16:11.470Z,68.40
2022-10-25T20:19:01.947Z,68.90
2022-10-25T20:21:35.321Z,69.40
2022-10-25T20:24:22.695Z,69.70
2022-10-25T20:26:51.499Z,70.00
2022-10-25T20:29:24.183Z,70.30
2022-10-25T20:31:53.760Z,70.60
2022-10-25T20:34:22.858Z,70.80
2022-10-25T20:36:53.062Z,71.10
2022-10-25T20:39:22.105Z,71.30
2022-10-25T20:41:50.987Z,71.40
2022-10-25T20:44:20.066Z,71.60
2022-10-25T20:46:50.501Z,71.70
2022-10-25T20:49:19.817Z,71.80
2022-10-25T20:51:49.014Z,72.00
2022-10-25T20:54:19.273Z,72.20
2022-10-25T20:57:08.915Z,72.30
2022-10-25T20:59:37.991Z,72.30
2022-10-25T21:02:07.335Z,72.40
2022-10-25T21:04:42.589Z,72.60
2022-10-25T21:07:24.579Z,72.70
2022-10-25T21:09:55.163Z,72.90
2022-10-25T21:12:24.827Z,73.10
2022-10-25T21:14:53.646Z,73.10
2022-10-25T21:17:22.554Z,73.20
2022-10-25T21:19:51.643Z,73.30
2022-10-25T21:22:20.445Z,73.30
2022-10-25T21:24:49.455Z,73.40
2022-10-25T21:27:19.829Z,73.50
2022-10-25T21:29:48.756Z,73.50
2022-10-25T21:32:17.552Z,73.60
2022-10-25T21:34:46.517Z,73.60
2022-10-25T21:37:15.485Z,73.60
2022-10-25T21:39:46.059Z,73.60
2022-10-25T21:42:15.339Z,73.80
2022-10-25T21:44:46.078Z,73.70
2022-10-25T21:47:15.929Z,73.20
2022-10-25T21:49:44.824Z,73.00
2022-10-25T21:52:13.941Z,72.60
2022-10-25T21:54:43.061Z,72.40
2022-10-25T21:57:12.133Z,72.60
2022-10-25T21:59:41.505Z,72.60
2022-10-25T22:02:12.049Z,72.70
2022-10-25T22:04:42.705Z,72.90
2022-10-25T22:07:11.629Z,73.20
2022-10-25T22:09:40.452Z,73.60
2022-10-25T22:12:09.364Z,73.90
2022-10-25T22:14:38.171Z,74.00
2022-10-25T22:17:06.901Z,74.20
2022-10-25T22:19:37.128Z,74.40
2022-10-25T22:22:06.142Z,74.50
2022-10-25T22:24:34.888Z,74.60
2022-10-25T22:27:03.645Z,74.70
2022-10-25T22:29:32.480Z,74.70
2022-10-25T22:32:01.315Z,74.70
2022-10-25T22:34:30.078Z,74.50
2022-10-25T22:37:01.541Z,74.50
2022-10-25T22:39:30.405Z,74.90
2022-10-25T22:41:59.184Z,75.10
2022-10-25T22:44:27.937Z,75.40
2022-10-25T22:46:56.787Z,75.60
2022-10-25T22:49:25.601Z,75.80
2022-10-25T22:51:54.566Z,76.10
2022-10-25T22:54:24.802Z,76.30
2022-10-25T22:56:53.661Z,76.70
2022-10-25T22:59:23.203Z,76.80
2022-10-25T23:01:51.995Z,76.90
2022-10-25T23:04:20.983Z,77.00
2022-10-25T23:06:49.730Z,77.30
2022-10-25T23:09:18.644Z,77.50
2022-10-25T23:11:50.261Z,77.60
2022-10-25T23:14:19.139Z,77.70
2022-10-25T23:16:48.262Z,77.60
2022-10-25T23:19:17.064Z,77.70
2022-10-25T23:21:45.988Z,77.90
2022-10-25T23:24:14.754Z,77.80
2022-10-25T23:26:43.681Z,77.60
2022-10-25T23:29:14.687Z,77.20
2022-10-25T23:31:43.661Z,77.20
2022-10-25T23:34:12.881Z,77.10
2022-10-25T23:36:41.718Z,77.20
2022-10-25T23:39:10.954Z,77.40
2022-10-25T23:41:39.869Z,77.70
2022-10-25T23:44:08.756Z,78.10
2022-10-25T23:46:39.150Z,78.50
2022-10-25T23:49:08.103Z,79.00
2022-10-25T23:51:36.957Z,78.80
2022-10-25T23:54:09.697Z,78.60
2022-10-25T23:56:38.770Z,78.30
2022-10-25T23:59:07.557Z,78.60
